sensor_id;sensor_type;location;lat;lon;timestamp;P1;durP1;ratioP1;P2;durP2;ratioP2
61525;SDS011;47394;41.366;-8.738;2022-12-18T00:01:27;20.38;;;11.15;;
61525;SDS011;47394;41.366;-8.738;2022-12-18T00:04:27;15.55;;;9.75;;
61525;SDS011;47394;41.366;-8.738;2022-12-18T00:07:26;19.02;;;9.35;;
61525;SDS011;47394;41.366;-8.738;2022-12-18T00:10:26;20.63;;;9.75;;
61525;SDS011;47394;41.366;-8.738;2022-12-18T00:13:28;23.70;;;10.20;;
61525;SDS011;47394;41.366;-8.738;2022-12-18T00:16:28;18.88;;;10.73;;
61525;SDS011;47394;41.366;-8.738;2022-12-18T00:19:28;27.30;;;11.27;;
61525;SDS011;47394;41.366;-8.738;2022-12-18T00:22:27;18.23;;;11.00;;
61525;SDS011;47394;41.366;-8.738;2022-12-18T00:25:27;21.77;;;10.10;;
61525;SDS011;47394;41.366;-8.738;2022-12-18T00:28:31;23.00;;;10.85;;
61525;SDS011;47394;41.366;-8.738;2022-12-18T00:31:30;20.88;;;10.02;;
61525;SDS011;47394;41.366;-8.738;2022-12-18T00:34:30;22.77;;;9.85;;
61525;SDS011;47394;41.366;-8.738;2022-12-18T00:37:29;19.17;;;9.73;;
61525;SDS011;47394;41.366;-8.738;2022-12-18T00:40:28;19.52;;;9.90;;
61525;SDS011;47394;41.366;-8.738;2022-12-18T00:43:46;16.30;;;9.82;;
61525;SDS011;47394;41.366;-8.738;2022-12-18T00:46:46;24.45;;;9.85;;
61525;SDS011;47394;41.366;-8.738;2022-12-18T00:49:46;22.58;;;9.70;;
61525;SDS011;47394;41.366;-8.738;2022-12-18T00:52:47;19.75;;;9.10;;
61525;SDS011;47394;41.366;-8.738;2022-12-18T00:55:47;22.77;;;8.18;;
61525;SDS011;47394;41.366;-8.738;2022-12-18T00:58:46;20.25;;;9.10;;
61525;SDS011;47394;41.366;-8.738;2022-12-18T01:01:46;18.25;;;8.27;;
61525;SDS011;47394;41.366;-8.738;2022-12-18T01:04:45;19.77;;;8.52;;
61525;SDS011;47394;41.366;-8.738;2022-12-18T01:07:45;18.50;;;8.38;;
61525;SDS011;47394;41.366;-8.738;2022-12-18T01:10:46;17.90;;;7.82;;
61525;SDS011;47394;41.366;-8.738;2022-12-18T01:13:46;17.63;;;7.95;;
61525;SDS011;47394;41.366;-8.738;2022-12-18T01:16:45;22.13;;;7.90;;
61525;SDS011;47394;41.366;-8.738;2022-12-18T01:19:44;14.10;;;7.90;;
61525;SDS011;47394;41.366;-8.738;2022-12-18T01:22:43;14.95;;;6.68;;
61525;SDS011;47394;41.366;-8.738;2022-12-18T01:25:46;15.40;;;6.43;;
61525;SDS011;47394;41.366;-8.738;2022-12-18T01:28:47;17.10;;;7.15;;
61525;SDS011;47394;41.366;-8.738;2022-12-18T01:31:47;13.27;;;6.00;;
61525;SDS011;47394;41.366;-8.738;2022-12-18T01:34:47;12.88;;;6.38;;
61525;SDS011;47394;41.366;-8.738;2022-12-18T01:37:46;15.88;;;6.65;;
61525;SDS011;47394;41.366;-8.738;2022-12-18T01:40:45;15.55;;;7.10;;
61525;SDS011;47394;41.366;-8.738;2022-12-18T01:44:46;12.68;;;6.65;;
61525;SDS011;47394;41.366;-8.738;2022-12-18T01:47:32;13.35;;;6.63;;
61525;SDS011;47394;41.366;-8.738;2022-12-18T01:50:41;16.08;;;5.82;;
61525;SDS011;47394;41.366;-8.738;2022-12-18T01:53:41;13.88;;;6.53;;
61525;SDS011;47394;41.366;-8.738;2022-12-18T01:56:43;13.38;;;6.47;;
61525;SDS011;47394;41.366;-8.738;2022-12-18T01:59:43;13.27;;;7.40;;
61525;SDS011;47394;41.366;-8.738;2022-12-18T02:02:44;16.17;;;6.93;;
61525;SDS011;47394;41.366;-8.738;2022-12-18T02:05:46;19.05;;;5.95;;
61525;SDS011;47394;41.366;-8.738;2022-12-18T02:12:21;18.88;;;5.97;;
61525;SDS011;47394;41.366;-8.738;2022-12-18T02:15:28;20.13;;;5.65;;
61525;SDS011;47394;41.366;-8.738;2022-12-18T02:18:36;15.25;;;5.57;;
61525;SDS011;47394;41.366;-8.738;2022-12-18T02:22:07;15.05;;;4.95;;
61525;SDS011;47394;41.366;-8.738;2022-12-18T02:31:57;10.07;;;3.97;;
61525;SDS011;47394;41.366;-8.738;2022-12-18T02:34:58;10.48;;;4.75;;
61525;SDS011;47394;41.366;-8.738;2022-12-18T02:37:59;14.85;;;3.85;;
61525;SDS011;47394;41.366;-8.738;2022-12-18T02:41:01;13.80;;;3.75;;
61525;SDS011;47394;41.366;-8.738;2022-12-18T02:44:09;13.73;;;4.35;;
61525;SDS011;47394;41.366;-8.738;2022-12-18T02:47:13;17.30;;;4.05;;
61525;SDS011;47394;41.366;-8.738;2022-12-18T02:50:16;13.93;;;2.83;;
61525;SDS011;47394;41.366;-8.738;2022-12-18T02:57:01;17.90;;;3.17;;
61525;SDS011;47394;41.366;-8.738;2022-12-18T03:00:29;16.52;;;3.15;;
61525;SDS011;47394;41.366;-8.738;2022-12-18T03:03:47;13.25;;;3.55;;
61525;SDS011;47394;41.366;-8.738;2022-12-18T03:06:53;13.27;;;3.00;;
61525;SDS011;47394;41.366;-8.738;2022-12-18T03:09:58;11.35;;;2.97;;
61525;SDS011;47394;41.366;-8.738;2022-12-18T03:16:01;11.93;;;2.53;;
61525;SDS011;47394;41.366;-8.738;2022-12-18T03:19:14;9.82;;;2.25;;
61525;SDS011;47394;41.366;-8.738;2022-12-18T03:22:17;14.05;;;2.33;;
61525;SDS011;47394;41.366;-8.738;2022-12-18T03:25:22;12.40;;;2.25;;
61525;SDS011;47394;41.366;-8.738;2022-12-18T03:28:27;9.98;;;3.20;;
61525;SDS011;47394;41.366;-8.738;2022-12-18T03:31:57;12.20;;;2.60;;
61525;SDS011;47394;41.366;-8.738;2022-12-18T03:35:21;15.93;;;2.67;;
61525;SDS011;47394;41.366;-8.738;2022-12-18T03:38:24;13.90;;;2.67;;
61525;SDS011;47394;41.366;-8.738;2022-12-18T03:41:31;8.35;;;2.50;;
61525;SDS011;47394;41.366;-8.738;2022-12-18T03:48:19;14.70;;;2.53;;
61525;SDS011;47394;41.366;-8.738;2022-12-18T03:51:34;9.35;;;2.55;;
61525;SDS011;47394;41.366;-8.738;2022-12-18T03:54:49;11.77;;;2.40;;
61525;SDS011;47394;41.366;-8.738;2022-12-18T03:57:51;11.18;;;2.45;;
61525;SDS011;47394;41.366;-8.738;2022-12-18T04:00:56;8.30;;;2.33;;
61525;SDS011;47394;41.366;-8.738;2022-12-18T04:04:00;10.00;;;2.10;;
61525;SDS011;47394;41.366;-8.738;2022-12-18T04:07:02;8.43;;;1.80;;
61525;SDS011;47394;41.366;-8.738;2022-12-18T04:10:06;8.55;;;2.40;;
61525;SDS011;47394;41.366;-8.738;2022-12-18T04:13:07;7.15;;;2.00;;
61525;SDS011;47394;41.366;-8.738;2022-12-18T04:16:06;10.07;;;2.40;;
61525;SDS011;47394;41.366;-8.738;2022-12-18T04:19:07;9.77;;;2.10;;
61525;SDS011;47394;41.366;-8.738;2022-12-18T04:22:09;8.63;;;2.30;;
61525;SDS011;47394;41.366;-8.738;2022-12-18T04:25:09;6.40;;;2.13;;
61525;SDS011;47394;41.366;-8.738;2022-12-18T04:28:40;11.10;;;2.47;;
61525;SDS011;47394;41.366;-8.738;2022-12-18T04:31:40;7.50;;;2.30;;
61525;SDS011;47394;41.366;-8.738;2022-12-18T04:34:39;9.15;;;2.42;;
61525;SDS011;47394;41.366;-8.738;2022-12-18T04:37:39;9.18;;;1.92;;
61525;SDS011;47394;41.366;-8.738;2022-12-18T04:40:42;10.38;;;2.20;;
61525;SDS011;47394;41.366;-8.738;2022-12-18T04:43:43;7.15;;;1.80;;
61525;SDS011;47394;41.366;-8.738;2022-12-18T04:46:42;6.38;;;1.80;;
61525;SDS011;47394;41.366;-8.738;2022-12-18T04:49:41;11.88;;;2.10;;
61525;SDS011;47394;41.366;-8.738;2022-12-18T04:52:40;9.30;;;2.15;;
61525;SDS011;47394;41.366;-8.738;2022-12-18T04:55:39;9.32;;;2.83;;
61525;SDS011;47394;41.366;-8.738;2022-12-18T04:58:39;7.30;;;2.10;;
61525;SDS011;47394;41.366;-8.738;2022-12-18T05:01:39;12.07;;;1.95;;
61525;SDS011;47394;41.366;-8.738;2022-12-18T05:04:38;7.75;;;1.80;;
61525;SDS011;47394;41.366;-8.738;2022-12-18T05:07:37;9.52;;;1.92;;
61525;SDS011;47394;41.366;-8.738;2022-12-18T05:10:37;6.88;;;1.70;;
61525;SDS011;47394;41.366;-8.738;2022-12-18T05:13:36;9.95;;;2.15;;
61525;SDS011;47394;41.366;-8.738;2022-12-18T05:16:36;8.55;;;2.97;;
61525;SDS011;47394;41.366;-8.738;2022-12-18T05:19:38;11.25;;;2.10;;
61525;SDS011;47394;41.366;-8.738;2022-12-18T05:22:37;9.52;;;1.80;;
61525;SDS011;47394;41.366;-8.738;2022-12-18T05:25:36;4.25;;;1.42;;
61525;SDS011;47394;41.366;-8.738;2022-12-18T05:28:36;6.53;;;1.63;;
61525;SDS011;47394;41.366;-8.738;2022-12-18T05:31:35;9.40;;;1.83;;
61525;SDS011;47394;41.366;-8.738;2022-12-18T05:34:34;3.75;;;1.30;;
61525;SDS011;47394;41.366;-8.738;2022-12-18T05:37:33;4.28;;;1.48;;
61525;SDS011;47394;41.366;-8.738;2022-12-18T05:40:34;7.60;;;2.00;;
61525;SDS011;47394;41.366;-8.738;2022-12-18T05:43:34;7.07;;;1.50;;
61525;SDS011;47394;41.366;-8.738;2022-12-18T05:46:34;3.97;;;1.50;;
61525;SDS011;47394;41.366;-8.738;2022-12-18T05:49:33;4.30;;;1.48;;
61525;SDS011;47394;41.366;-8.738;2022-12-18T05:52:39;6.07;;;1.67;;
61525;SDS011;47394;41.366;-8.738;2022-12-18T05:55:39;11.25;;;2.10;;
61525;SDS011;47394;41.366;-8.738;2022-12-18T05:58:39;4.78;;;1.70;;
61525;SDS011;47394;41.366;-8.738;2022-12-18T06:01:38;8.13;;;1.73;;
61525;SDS011;47394;41.366;-8.738;2022-12-18T06:04:37;4.07;;;1.80;;
61525;SDS011;47394;41.366;-8.738;2022-12-18T06:07:38;6.57;;;1.98;;
61525;SDS011;47394;41.366;-8.738;2022-12-18T06:10:37;5.40;;;1.92;;
61525;SDS011;47394;41.366;-8.738;2022-12-18T06:13:37;6.07;;;1.35;;
61525;SDS011;47394;41.366;-8.738;2022-12-18T06:16:36;4.85;;;1.30;;
61525;SDS011;47394;41.366;-8.738;2022-12-18T06:19:36;8.40;;;1.90;;
61525;SDS011;47394;41.366;-8.738;2022-12-18T06:22:37;6.03;;;1.58;;
61525;SDS011;47394;41.366;-8.738;2022-12-18T06:25:37;4.78;;;1.27;;
61525;SDS011;47394;41.366;-8.738;2022-12-18T06:28:39;4.70;;;1.85;;
61525;SDS011;47394;41.366;-8.738;2022-12-18T06:31:38;3.67;;;1.35;;
61525;SDS011;47394;41.366;-8.738;2022-12-18T06:34:38;6.07;;;1.77;;
61525;SDS011;47394;41.366;-8.738;2022-12-18T06:37:37;3.05;;;1.25;;
61525;SDS011;47394;41.366;-8.738;2022-12-18T06:40:38;4.38;;;1.35;;
61525;SDS011;47394;41.366;-8.738;2022-12-18T06:43:37;8.10;;;2.15;;
61525;SDS011;47394;41.366;-8.738;2022-12-18T06:46:36;2.63;;;1.25;;
61525;SDS011;47394;41.366;-8.738;2022-12-18T06:49:36;4.10;;;1.30;;
61525;SDS011;47394;41.366;-8.738;2022-12-18T06:52:35;5.35;;;1.30;;
61525;SDS011;47394;41.366;-8.738;2022-12-18T06:55:34;5.32;;;1.33;;
61525;SDS011;47394;41.366;-8.738;2022-12-18T06:58:33;8.13;;;1.58;;
61525;SDS011;47394;41.366;-8.738;2022-12-18T07:01:33;6.38;;;1.60;;
61525;SDS011;47394;41.366;-8.738;2022-12-18T07:04:32;9.88;;;1.50;;
61525;SDS011;47394;41.366;-8.738;2022-12-18T07:07:32;8.85;;;1.90;;
61525;SDS011;47394;41.366;-8.738;2022-12-18T07:10:32;7.93;;;1.55;;
61525;SDS011;47394;41.366;-8.738;2022-12-18T07:13:34;10.45;;;1.85;;
61525;SDS011;47394;41.366;-8.738;2022-12-18T07:16:34;6.80;;;1.90;;
61525;SDS011;47394;41.366;-8.738;2022-12-18T07:19:33;6.60;;;1.70;;
61525;SDS011;47394;41.366;-8.738;2022-12-18T07:22:33;12.63;;;2.08;;
61525;SDS011;47394;41.366;-8.738;2022-12-18T07:25:33;9.35;;;2.10;;
61525;SDS011;47394;41.366;-8.738;2022-12-18T07:28:33;8.70;;;1.70;;
61525;SDS011;47394;41.366;-8.738;2022-12-18T07:31:32;11.23;;;2.33;;
61525;SDS011;47394;41.366;-8.738;2022-12-18T07:34:32;13.07;;;2.45;;
61525;SDS011;47394;41.366;-8.738;2022-12-18T07:37:32;10.38;;;2.85;;
61525;SDS011;47394;41.366;-8.738;2022-12-18T07:40:32;10.32;;;2.22;;
61525;SDS011;47394;41.366;-8.738;2022-12-18T07:43:41;10.00;;;2.10;;
61525;SDS011;47394;41.366;-8.738;2022-12-18T07:46:41;8.35;;;2.03;;
61525;SDS011;47394;41.366;-8.738;2022-12-18T07:49:41;8.65;;;2.03;;
61525;SDS011;47394;41.366;-8.738;2022-12-18T07:52:40;13.57;;;2.40;;
61525;SDS011;47394;41.366;-8.738;2022-12-18T07:55:40;9.45;;;2.05;;
61525;SDS011;47394;41.366;-8.738;2022-12-18T07:58:39;11.02;;;2.53;;
61525;SDS011;47394;41.366;-8.738;2022-12-18T08:01:39;8.68;;;2.22;;
61525;SDS011;47394;41.366;-8.738;2022-12-18T08:04:38;6.47;;;1.80;;
61525;SDS011;47394;41.366;-8.738;2022-12-18T08:07:37;9.20;;;2.20;;
61525;SDS011;47394;41.366;-8.738;2022-12-18T08:10:37;18.98;;;2.20;;
61525;SDS011;47394;41.366;-8.738;2022-12-18T08:13:36;10.07;;;2.30;;
61525;SDS011;47394;41.366;-8.738;2022-12-18T08:16:35;9.70;;;1.88;;
61525;SDS011;47394;41.366;-8.738;2022-12-18T08:19:35;8.55;;;2.00;;
61525;SDS011;47394;41.366;-8.738;2022-12-18T08:22:37;9.18;;;2.03;;
61525;SDS011;47394;41.366;-8.738;2022-12-18T08:25:36;5.68;;;2.10;;
61525;SDS011;47394;41.366;-8.738;2022-12-18T08:28:35;6.57;;;2.00;;
61525;SDS011;47394;41.366;-8.738;2022-12-18T08:31:35;11.38;;;2.17;;
61525;SDS011;47394;41.366;-8.738;2022-12-18T08:34:34;7.53;;;1.95;;
61525;SDS011;47394;41.366;-8.738;2022-12-18T08:37:37;11.63;;;1.80;;
61525;SDS011;47394;41.366;-8.738;2022-12-18T08:40:36;11.30;;;2.15;;
61525;SDS011;47394;41.366;-8.738;2022-12-18T08:43:35;6.43;;;1.83;;
61525;SDS011;47394;41.366;-8.738;2022-12-18T08:46:38;8.52;;;2.17;;
61525;SDS011;47394;41.366;-8.738;2022-12-18T08:49:38;7.32;;;1.95;;
61525;SDS011;47394;41.366;-8.738;2022-12-18T08:52:37;9.65;;;2.20;;
61525;SDS011;47394;41.366;-8.738;2022-12-18T08:55:36;8.52;;;1.85;;
61525;SDS011;47394;41.366;-8.738;2022-12-18T08:58:35;6.38;;;1.80;;
61525;SDS011;47394;41.366;-8.738;2022-12-18T09:01:35;7.20;;;1.52;;
61525;SDS011;47394;41.366;-8.738;2022-12-18T09:04:34;11.27;;;1.70;;
61525;SDS011;47394;41.366;-8.738;2022-12-18T09:07:33;6.63;;;1.52;;
61525;SDS011;47394;41.366;-8.738;2022-12-18T09:10:45;6.90;;;1.73;;
61525;SDS011;47394;41.366;-8.738;2022-12-18T09:13:44;5.15;;;1.30;;
61525;SDS011;47394;41.366;-8.738;2022-12-18T09:16:44;11.18;;;2.60;;
61525;SDS011;47394;41.366;-8.738;2022-12-18T09:19:43;8.52;;;1.83;;
61525;SDS011;47394;41.366;-8.738;2022-12-18T09:22:42;8.32;;;1.35;;
61525;SDS011;47394;41.366;-8.738;2022-12-18T09:25:42;6.40;;;1.67;;
61525;SDS011;47394;41.366;-8.738;2022-12-18T09:28:41;7.80;;;1.60;;
61525;SDS011;47394;41.366;-8.738;2022-12-18T09:31:41;7.05;;;1.98;;
61525;SDS011;47394;41.366;-8.738;2022-12-18T09:34:40;10.45;;;1.45;;
61525;SDS011;47394;41.366;-8.738;2022-12-18T09:37:39;5.97;;;1.70;;
61525;SDS011;47394;41.366;-8.738;2022-12-18T09:40:43;11.77;;;2.20;;
61525;SDS011;47394;41.366;-8.738;2022-12-18T09:43:47;7.97;;;1.85;;
61525;SDS011;47394;41.366;-8.738;2022-12-18T09:49:53;10.88;;;2.85;;
61525;SDS011;47394;41.366;-8.738;2022-12-18T09:56:02;8.35;;;1.52;;
61525;SDS011;47394;41.366;-8.738;2022-12-18T09:59:04;13.05;;;1.98;;
61525;SDS011;47394;41.366;-8.738;2022-12-18T10:02:30;10.25;;;2.30;;
61525;SDS011;47394;41.366;-8.738;2022-12-18T10:12:07;6.18;;;2.38;;
61525;SDS011;47394;41.366;-8.738;2022-12-18T10:15:15;8.73;;;2.25;;
61525;SDS011;47394;41.366;-8.738;2022-12-18T10:22:26;11.65;;;2.13;;
61525;SDS011;47394;41.366;-8.738;2022-12-18T10:28:39;8.27;;;2.10;;
61525;SDS011;47394;41.366;-8.738;2022-12-18T10:31:39;8.15;;;1.80;;
61525;SDS011;47394;41.366;-8.738;2022-12-18T10:34:38;9.45;;;1.98;;
61525;SDS011;47394;41.366;-8.738;2022-12-18T10:37:58;11.65;;;2.10;;
61525;SDS011;47394;41.366;-8.738;2022-12-18T10:44:21;4.32;;;1.75;;
61525;SDS011;47394;41.366;-8.738;2022-12-18T10:47:21;7.68;;;2.25;;
61525;SDS011;47394;41.366;-8.738;2022-12-18T10:50:29;8.95;;;2.60;;
61525;SDS011;47394;41.366;-8.738;2022-12-18T10:53:36;6.13;;;1.70;;
61525;SDS011;47394;41.366;-8.738;2022-12-18T10:56:36;10.38;;;2.33;;
61525;SDS011;47394;41.366;-8.738;2022-12-18T10:59:50;7.72;;;2.30;;
61525;SDS011;47394;41.366;-8.738;2022-12-18T11:03:01;4.68;;;1.60;;
61525;SDS011;47394;41.366;-8.738;2022-12-18T11:06:13;7.70;;;1.40;;
61525;SDS011;47394;41.366;-8.738;2022-12-18T11:09:19;4.15;;;1.90;;
61525;SDS011;47394;41.366;-8.738;2022-12-18T11:12:19;4.32;;;1.70;;
61525;SDS011;47394;41.366;-8.738;2022-12-18T11:15:24;5.47;;;2.00;;
61525;SDS011;47394;41.366;-8.738;2022-12-18T11:18:34;5.50;;;1.50;;
61525;SDS011;47394;41.366;-8.738;2022-12-18T11:21:38;9.63;;;1.95;;
61525;SDS011;47394;41.366;-8.738;2022-12-18T11:24:38;6.90;;;1.60;;
61525;SDS011;47394;41.366;-8.738;2022-12-18T11:27:38;8.15;;;1.98;;
61525;SDS011;47394;41.366;-8.738;2022-12-18T11:34:29;4.65;;;1.60;;
61525;SDS011;47394;41.366;-8.738;2022-12-18T11:37:31;4.47;;;2.22;;
61525;SDS011;47394;41.366;-8.738;2022-12-18T11:40:36;8.30;;;1.77;;
61525;SDS011;47394;41.366;-8.738;2022-12-18T11:44:00;6.10;;;1.50;;
61525;SDS011;47394;41.366;-8.738;2022-12-18T11:47:07;6.90;;;1.80;;
61525;SDS011;47394;41.366;-8.738;2022-12-18T11:50:50;6.78;;;1.60;;
61525;SDS011;47394;41.366;-8.738;2022-12-18T11:54:04;13.15;;;2.05;;
61525;SDS011;47394;41.366;-8.738;2022-12-18T12:00:27;6.05;;;2.28;;
61525;SDS011;47394;41.366;-8.738;2022-12-18T12:03:34;4.60;;;1.58;;
61525;SDS011;47394;41.366;-8.738;2022-12-18T12:10:05;6.20;;;1.65;;
61525;SDS011;47394;41.366;-8.738;2022-12-18T12:20:29;6.05;;;2.33;;
61525;SDS011;47394;41.366;-8.738;2022-12-18T12:30:43;7.53;;;2.03;;
61525;SDS011;47394;41.366;-8.738;2022-12-18T12:40:29;6.40;;;1.52;;
61525;SDS011;47394;41.366;-8.738;2022-12-18T12:43:51;8.43;;;1.85;;
61525;SDS011;47394;41.366;-8.738;2022-12-18T12:46:52;4.88;;;1.48;;
61525;SDS011;47394;41.366;-8.738;2022-12-18T12:49:55;9.68;;;2.38;;
61525;SDS011;47394;41.366;-8.738;2022-12-18T12:52:57;7.85;;;2.38;;
61525;SDS011;47394;41.366;-8.738;2022-12-18T12:55:57;7.43;;;1.63;;
61525;SDS011;47394;41.366;-8.738;2022-12-18T12:59:13;6.45;;;1.67;;
61525;SDS011;47394;41.366;-8.738;2022-12-18T13:02:35;5.65;;;2.00;;
61525;SDS011;47394;41.366;-8.738;2022-12-18T13:06:30;7.95;;;2.05;;
61525;SDS011;47394;41.366;-8.738;2022-12-18T13:09:33;6.22;;;1.80;;
61525;SDS011;47394;41.366;-8.738;2022-12-18T13:12:33;6.60;;;1.90;;
61525;SDS011;47394;41.366;-8.738;2022-12-18T13:15:48;8.25;;;1.42;;
61525;SDS011;47394;41.366;-8.738;2022-12-18T13:18:49;2.60;;;1.40;;
61525;SDS011;47394;41.366;-8.738;2022-12-18T13:21:53;4.95;;;1.60;;
61525;SDS011;47394;41.366;-8.738;2022-12-18T13:24:53;5.18;;;1.67;;
61525;SDS011;47394;41.366;-8.738;2022-12-18T13:31:04;7.20;;;1.85;;
61525;SDS011;47394;41.366;-8.738;2022-12-18T13:34:17;7.72;;;2.00;;
61525;SDS011;47394;41.366;-8.738;2022-12-18T13:44:26;10.52;;;2.60;;
61525;SDS011;47394;41.366;-8.738;2022-12-18T13:47:39;6.32;;;2.10;;
61525;SDS011;47394;41.366;-8.738;2022-12-18T13:50:38;13.75;;;2.47;;
61525;SDS011;47394;41.366;-8.738;2022-12-18T13:53:43;7.70;;;1.90;;
61525;SDS011;47394;41.366;-8.738;2022-12-18T13:56:47;21.13;;;2.92;;
61525;SDS011;47394;41.366;-8.738;2022-12-18T13:59:47;10.38;;;2.83;;
61525;SDS011;47394;41.366;-8.738;2022-12-18T14:02:46;7.72;;;2.33;;
61525;SDS011;47394;41.366;-8.738;2022-12-18T14:05:45;9.98;;;2.58;;
61525;SDS011;47394;41.366;-8.738;2022-12-18T14:08:46;11.98;;;2.50;;
61525;SDS011;47394;41.366;-8.738;2022-12-18T14:11:47;9.73;;;2.17;;
61525;SDS011;47394;41.366;-8.738;2022-12-18T14:14:57;12.40;;;2.30;;
61525;SDS011;47394;41.366;-8.738;2022-12-18T14:17:59;13.63;;;2.30;;
61525;SDS011;47394;41.366;-8.738;2022-12-18T14:20:59;9.32;;;2.58;;
61525;SDS011;47394;41.366;-8.738;2022-12-18T14:27:21;17.55;;;2.90;;
61525;SDS011;47394;41.366;-8.738;2022-12-18T14:33:25;12.32;;;2.83;;
61525;SDS011;47394;41.366;-8.738;2022-12-18T14:36:27;12.80;;;2.92;;
61525;SDS011;47394;41.366;-8.738;2022-12-18T14:39:27;13.82;;;2.90;;
61525;SDS011;47394;41.366;-8.738;2022-12-18T14:42:27;7.60;;;2.95;;
61525;SDS011;47394;41.366;-8.738;2022-12-18T14:48:34;10.65;;;2.85;;
61525;SDS011;47394;41.366;-8.738;2022-12-18T14:51:34;9.30;;;2.75;;
61525;SDS011;47394;41.366;-8.738;2022-12-18T14:54:35;7.93;;;2.75;;
61525;SDS011;47394;41.366;-8.738;2022-12-18T14:57:36;9.48;;;2.22;;
61525;SDS011;47394;41.366;-8.738;2022-12-18T15:00:35;7.30;;;2.38;;
61525;SDS011;47394;41.366;-8.738;2022-12-18T15:03:45;8.82;;;2.60;;
61525;SDS011;47394;41.366;-8.738;2022-12-18T15:06:45;5.63;;;2.10;;
61525;SDS011;47394;41.366;-8.738;2022-12-18T15:10:08;5.97;;;2.40;;
61525;SDS011;47394;41.366;-8.738;2022-12-18T15:13:26;7.78;;;2.63;;
61525;SDS011;47394;41.366;-8.738;2022-12-18T15:16:52;8.52;;;2.55;;
61525;SDS011;47394;41.366;-8.738;2022-12-18T15:20:03;6.57;;;2.22;;
61525;SDS011;47394;41.366;-8.738;2022-12-18T15:26:20;11.55;;;3.28;;
61525;SDS011;47394;41.366;-8.738;2022-12-18T15:29:30;7.53;;;2.40;;
61525;SDS011;47394;41.366;-8.738;2022-12-18T15:32:30;6.00;;;2.42;;
61525;SDS011;47394;41.366;-8.738;2022-12-18T15:35:34;11.85;;;3.20;;
61525;SDS011;47394;41.366;-8.738;2022-12-18T15:38:36;5.57;;;2.90;;
61525;SDS011;47394;41.366;-8.738;2022-12-18T15:41:36;10.43;;;3.25;;
61525;SDS011;47394;41.366;-8.738;2022-12-18T15:44:53;8.15;;;2.45;;
61525;SDS011;47394;41.366;-8.738;2022-12-18T15:47:52;8.27;;;2.15;;
61525;SDS011;47394;41.366;-8.738;2022-12-18T15:50:53;6.53;;;1.90;;
61525;SDS011;47394;41.366;-8.738;2022-12-18T15:53:55;10.60;;;2.38;;
61525;SDS011;47394;41.366;-8.738;2022-12-18T15:57:13;8.10;;;2.30;;
61525;SDS011;47394;41.366;-8.738;2022-12-18T16:00:12;7.82;;;2.05;;
61525;SDS011;47394;41.366;-8.738;2022-12-18T16:03:12;9.27;;;2.63;;
61525;SDS011;47394;41.366;-8.738;2022-12-18T16:06:16;13.07;;;2.40;;
61525;SDS011;47394;41.366;-8.738;2022-12-18T16:09:15;14.38;;;2.97;;
61525;SDS011;47394;41.366;-8.738;2022-12-18T16:12:15;8.35;;;2.42;;
61525;SDS011;47394;41.366;-8.738;2022-12-18T16:15:18;8.02;;;2.53;;
61525;SDS011;47394;41.366;-8.738;2022-12-18T16:18:17;11.75;;;2.58;;
61525;SDS011;47394;41.366;-8.738;2022-12-18T16:21:17;6.30;;;2.10;;
61525;SDS011;47394;41.366;-8.738;2022-12-18T16:24:22;6.75;;;2.38;;
61525;SDS011;47394;41.366;-8.738;2022-12-18T16:27:24;8.52;;;2.22;;
61525;SDS011;47394;41.366;-8.738;2022-12-18T16:30:27;9.48;;;1.98;;
61525;SDS011;47394;41.366;-8.738;2022-12-18T16:33:27;8.15;;;2.10;;
61525;SDS011;47394;41.366;-8.738;2022-12-18T16:36:30;11.13;;;2.25;;
61525;SDS011;47394;41.366;-8.738;2022-12-18T16:39:29;8.13;;;2.60;;
61525;SDS011;47394;41.366;-8.738;2022-12-18T16:42:31;10.32;;;2.30;;
61525;SDS011;47394;41.366;-8.738;2022-12-18T16:45:31;15.35;;;2.78;;
61525;SDS011;47394;41.366;-8.738;2022-12-18T16:48:30;13.80;;;3.25;;
61525;SDS011;47394;41.366;-8.738;2022-12-18T16:51:30;20.58;;;3.92;;
61525;SDS011;47394;41.366;-8.738;2022-12-18T16:54:29;14.55;;;3.47;;
61525;SDS011;47394;41.366;-8.738;2022-12-18T16:57:29;15.40;;;3.97;;
61525;SDS011;47394;41.366;-8.738;2022-12-18T17:00:28;18.52;;;3.38;;
61525;SDS011;47394;41.366;-8.738;2022-12-18T17:03:31;9.68;;;2.88;;
61525;SDS011;47394;41.366;-8.738;2022-12-18T17:06:34;12.65;;;3.20;;
61525;SDS011;47394;41.366;-8.738;2022-12-18T17:09:34;15.25;;;2.92;;
61525;SDS011;47394;41.366;-8.738;2022-12-18T17:12:34;9.57;;;2.90;;
61525;SDS011;47394;41.366;-8.738;2022-12-18T17:15:34;14.20;;;3.42;;
61525;SDS011;47394;41.366;-8.738;2022-12-18T17:18:34;8.80;;;3.05;;
61525;SDS011;47394;41.366;-8.738;2022-12-18T17:21:34;11.52;;;2.92;;
61525;SDS011;47394;41.366;-8.738;2022-12-18T17:24:33;7.53;;;3.30;;
61525;SDS011;47394;41.366;-8.738;2022-12-18T17:27:32;17.15;;;4.03;;
61525;SDS011;47394;41.366;-8.738;2022-12-18T17:30:32;10.40;;;3.50;;
61525;SDS011;47394;41.366;-8.738;2022-12-18T17:33:33;12.65;;;3.38;;
61525;SDS011;47394;41.366;-8.738;2022-12-18T17:36:33;14.65;;;3.30;;
61525;SDS011;47394;41.366;-8.738;2022-12-18T17:39:33;18.27;;;2.95;;
61525;SDS011;47394;41.366;-8.738;2022-12-18T17:42:34;12.27;;;2.92;;
61525;SDS011;47394;41.366;-8.738;2022-12-18T17:45:38;13.10;;;3.00;;
61525;SDS011;47394;41.366;-8.738;2022-12-18T17:48:38;17.20;;;3.67;;
61525;SDS011;47394;41.366;-8.738;2022-12-18T17:51:38;11.18;;;3.72;;
61525;SDS011;47394;41.366;-8.738;2022-12-18T17:54:37;11.23;;;3.17;;
61525;SDS011;47394;41.366;-8.738;2022-12-18T17:57:36;11.05;;;3.30;;
61525;SDS011;47394;41.366;-8.738;2022-12-18T18:00:37;9.07;;;3.17;;
61525;SDS011;47394;41.366;-8.738;2022-12-18T18:03:37;10.70;;;3.03;;
61525;SDS011;47394;41.366;-8.738;2022-12-18T18:06:36;8.30;;;3.13;;
61525;SDS011;47394;41.366;-8.738;2022-12-18T18:09:35;10.88;;;3.17;;
61525;SDS011;47394;41.366;-8.738;2022-12-18T18:12:37;7.95;;;2.78;;
61525;SDS011;47394;41.366;-8.738;2022-12-18T18:15:55;9.75;;;2.58;;
61525;SDS011;47394;41.366;-8.738;2022-12-18T18:18:58;6.72;;;2.45;;
61525;SDS011;47394;41.366;-8.738;2022-12-18T18:21:58;6.20;;;2.85;;
61525;SDS011;47394;41.366;-8.738;2022-12-18T18:24:57;5.88;;;2.53;;
61525;SDS011;47394;41.366;-8.738;2022-12-18T18:28:01;12.50;;;3.78;;
61525;SDS011;47394;41.366;-8.738;2022-12-18T18:31:04;12.23;;;2.72;;
61525;SDS011;47394;41.366;-8.738;2022-12-18T18:34:04;8.00;;;2.85;;
61525;SDS011;47394;41.366;-8.738;2022-12-18T18:37:03;10.80;;;3.00;;
61525;SDS011;47394;41.366;-8.738;2022-12-18T18:40:03;11.95;;;2.88;;
61525;SDS011;47394;41.366;-8.738;2022-12-18T18:43:04;8.98;;;3.03;;
61525;SDS011;47394;41.366;-8.738;2022-12-18T18:46:04;12.35;;;2.60;;
61525;SDS011;47394;41.366;-8.738;2022-12-18T18:49:03;7.03;;;2.58;;
61525;SDS011;47394;41.366;-8.738;2022-12-18T18:52:03;8.25;;;2.88;;
61525;SDS011;47394;41.366;-8.738;2022-12-18T18:55:02;8.73;;;2.50;;
61525;SDS011;47394;41.366;-8.738;2022-12-18T18:58:01;7.32;;;2.70;;
61525;SDS011;47394;41.366;-8.738;2022-12-18T19:01:02;7.20;;;2.80;;
61525;SDS011;47394;41.366;-8.738;2022-12-18T19:04:02;10.25;;;2.63;;
61525;SDS011;47394;41.366;-8.738;2022-12-18T19:07:02;7.47;;;2.40;;
61525;SDS011;47394;41.366;-8.738;2022-12-18T19:10:02;8.45;;;2.13;;
61525;SDS011;47394;41.366;-8.738;2022-12-18T19:13:02;5.93;;;2.25;;
61525;SDS011;47394;41.366;-8.738;2022-12-18T19:16:06;7.28;;;2.50;;
61525;SDS011;47394;41.366;-8.738;2022-12-18T19:19:05;5.30;;;2.05;;
61525;SDS011;47394;41.366;-8.738;2022-12-18T19:22:05;4.88;;;2.40;;
61525;SDS011;47394;41.366;-8.738;2022-12-18T19:25:05;9.05;;;2.75;;
61525;SDS011;47394;41.366;-8.738;2022-12-18T19:28:07;7.20;;;2.30;;
61525;SDS011;47394;41.366;-8.738;2022-12-18T19:31:08;7.15;;;2.08;;
61525;SDS011;47394;41.366;-8.738;2022-12-18T19:34:11;5.65;;;2.63;;
61525;SDS011;47394;41.366;-8.738;2022-12-18T19:37:10;5.75;;;2.38;;